sensor_id;sensor_type;location;lat;lon;timestamp;pressure;altitude;pressure_sealevel;temperature;humidity
4836;BME280;2432;51.226;6.904;2022-08-18T00:02:19;100536.88;;;18.95;100.00
4836;BME280;2432;51.226;6.904;2022-08-18T00:04:56;100544.03;;;18.92;100.00
4836;BME280;2432;51.226;6.904;2022-08-18T00:07:26;100547.13;;;19.01;100.00
4836;BME280;2432;51.226;6.904;2022-08-18T00:09:53;100558.44;;;18.88;100.00
4836;BME280;2432;51.226;6.904;2022-08-18T00:12:24;100552.69;;;18.96;100.00
4836;BME280;2432;51.226;6.904;2022-08-18T00:14:53;100545.06;;;19.06;100.00
4836;BME280;2432;51.226;6.904;2022-08-18T00:17:20;100555.34;;;19.12;100.00
4836;BME280;2432;51.226;6.904;2022-08-18T00:19:48;100558.69;;;19.15;100.00
4836;BME280;2432;51.226;6.904;2022-08-18T00:22:18;100562.63;;;19.08;100.00
4836;BME280;2432;51.226;6.904;2022-08-18T00:24:48;100554.31;;;18.99;100.00
4836;BME280;2432;51.226;6.904;2022-08-18T00:27:20;100560.66;;;18.96;100.00
4836;BME280;2432;51.226;6.904;2022-08-18T00:29:50;100574.53;;;18.85;100.00
4836;BME280;2432;51.226;6.904;2022-08-18T00:32:24;100572.56;;;18.56;100.00
4836;BME280;2432;51.226;6.904;2022-08-18T00:42:25;100562.56;;;18.61;100.00
4836;BME280;2432;51.226;6.904;2022-08-18T00:44:59;100547.84;;;18.55;100.00
4836;BME280;2432;51.226;6.904;2022-08-18T00:47:26;100545.50;;;18.49;100.00
4836;BME280;2432;51.226;6.904;2022-08-18T00:50:12;100547.22;;;18.50;100.00
4836;BME280;2432;51.226;6.904;2022-08-18T00:52:45;100550.16;;;18.61;100.00
4836;BME280;2432;51.226;6.904;2022-08-18T00:55:15;100551.59;;;18.69;100.00
4836;BME280;2432;51.226;6.904;2022-08-18T00:57:45;100553.91;;;18.57;100.00
4836;BME280;2432;51.226;6.904;2022-08-18T01:00:14;100547.59;;;18.60;100.00
4836;BME280;2432;51.226;6.904;2022-08-18T01:02:45;100542.34;;;18.58;100.00
4836;BME280;2432;51.226;6.904;2022-08-18T01:05:18;100547.16;;;18.52;100.00
4836;BME280;2432;51.226;6.904;2022-08-18T01:07:49;100549.88;;;18.34;100.00
4836;BME280;2432;51.226;6.904;2022-08-18T01:10:19;100538.66;;;18.29;100.00
4836;BME280;2432;51.226;6.904;2022-08-18T01:12:55;100534.19;;;18.30;100.00
4836;BME280;2432;51.226;6.904;2022-08-18T01:15:23;100531.72;;;18.27;100.00
4836;BME280;2432;51.226;6.904;2022-08-18T01:18:00;100538.38;;;18.18;100.00
4836;BME280;2432;51.226;6.904;2022-08-18T01:23:47;100548.19;;;18.16;100.00
4836;BME280;2432;51.226;6.904;2022-08-18T01:26:15;100559.31;;;17.90;100.00
4836;BME280;2432;51.226;6.904;2022-08-18T01:28:45;100550.66;;;17.86;100.00
4836;BME280;2432;51.226;6.904;2022-08-18T01:31:28;100556.22;;;17.97;100.00
4836;BME280;2432;51.226;6.904;2022-08-18T01:33:55;100553.66;;;18.13;100.00
4836;BME280;2432;51.226;6.904;2022-08-18T01:36:22;100544.75;;;18.14;100.00
4836;BME280;2432;51.226;6.904;2022-08-18T01:38:51;100542.91;;;18.16;100.00
4836;BME280;2432;51.226;6.904;2022-08-18T01:41:20;100565.19;;;18.12;100.00
4836;BME280;2432;51.226;6.904;2022-08-18T01:43:58;100563.78;;;18.05;100.00
4836;BME280;2432;51.226;6.904;2022-08-18T01:46:26;100561.78;;;17.93;100.00
4836;BME280;2432;51.226;6.904;2022-08-18T01:48:55;100571.53;;;17.92;100.00
4836;BME280;2432;51.226;6.904;2022-08-18T01:51:23;100565.13;;;17.96;100.00
4836;BME280;2432;51.226;6.904;2022-08-18T01:54:04;100565.59;;;18.04;100.00
4836;BME280;2432;51.226;6.904;2022-08-18T01:56:31;100558.94;;;18.13;100.00
4836;BME280;2432;51.226;6.904;2022-08-18T01:58:57;100570.00;;;18.21;100.00
4836;BME280;2432;51.226;6.904;2022-08-18T02:01:25;100565.16;;;18.29;100.00
4836;BME280;2432;51.226;6.904;2022-08-18T02:04:02;100563.13;;;18.34;100.00
4836;BME280;2432;51.226;6.904;2022-08-18T02:06:52;100569.44;;;18.32;100.00
4836;BME280;2432;51.226;6.904;2022-08-18T02:09:19;100575.56;;;18.17;100.00
4836;BME280;2432;51.226;6.904;2022-08-18T02:11:49;100571.25;;;18.14;100.00
4836;BME280;2432;51.226;6.904;2022-08-18T02:14:18;100566.13;;;18.11;100.00
4836;BME280;2432;51.226;6.904;2022-08-18T02:16:52;100575.19;;;18.07;100.00
4836;BME280;2432;51.226;6.904;2022-08-18T02:19:26;100563.69;;;18.06;100.00
4836;BME280;2432;51.226;6.904;2022-08-18T02:21:53;100563.66;;;18.08;100.00
4836;BME280;2432;51.226;6.904;2022-08-18T02:24:20;100551.75;;;18.15;100.00
4836;BME280;2432;51.226;6.904;2022-08-18T02:26:46;100553.06;;;18.08;100.00
4836;BME280;2432;51.226;6.904;2022-08-18T02:29:13;100555.06;;;18.03;100.00
4836;BME280;2432;51.226;6.904;2022-08-18T02:31:39;100549.03;;;17.84;100.00
4836;BME280;2432;51.226;6.904;2022-08-18T02:34:06;100542.88;;;17.83;100.00
4836;BME280;2432;51.226;6.904;2022-08-18T02:36:32;100539.88;;;17.89;100.00
4836;BME280;2432;51.226;6.904;2022-08-18T02:38:59;100537.94;;;17.93;100.00
4836;BME280;2432;51.226;6.904;2022-08-18T02:41:26;100543.69;;;18.01;100.00
4836;BME280;2432;51.226;6.904;2022-08-18T02:43:55;100541.66;;;18.06;100.00
4836;BME280;2432;51.226;6.904;2022-08-18T02:46:22;100538.50;;;18.15;100.00
4836;BME280;2432;51.226;6.904;2022-08-18T02:48:54;100545.66;;;18.30;100.00
4836;BME280;2432;51.226;6.904;2022-08-18T02:51:22;100541.56;;;18.41;100.00
4836;BME280;2432;51.226;6.904;2022-08-18T02:53:51;100540.38;;;18.46;100.00
4836;BME280;2432;51.226;6.904;2022-08-18T02:56:22;100541.16;;;18.48;100.00
4836;BME280;2432;51.226;6.904;2022-08-18T02:59:08;100542.72;;;18.52;100.00
4836;BME280;2432;51.226;6.904;2022-08-18T03:01:38;100543.47;;;18.54;100.00
4836;BME280;2432;51.226;6.904;2022-08-18T03:04:07;100541.50;;;18.58;100.00
4836;BME280;2432;51.226;6.904;2022-08-18T03:06:35;100542.31;;;18.60;100.00
4836;BME280;2432;51.226;6.904;2022-08-18T03:09:07;100542.53;;;18.55;100.00
4836;BME280;2432;51.226;6.904;2022-08-18T03:11:34;100541.88;;;18.52;100.00
4836;BME280;2432;51.226;6.904;2022-08-18T03:14:02;100543.28;;;18.42;100.00
4836;BME280;2432;51.226;6.904;2022-08-18T03:16:31;100539.91;;;18.22;100.00
4836;BME280;2432;51.226;6.904;2022-08-18T03:19:02;100535.00;;;18.15;100.00
4836;BME280;2432;51.226;6.904;2022-08-18T03:21:31;100546.16;;;18.21;100.00
4836;BME280;2432;51.226;6.904;2022-08-18T03:24:02;100546.00;;;18.24;100.00
4836;BME280;2432;51.226;6.904;2022-08-18T03:26:40;100543.78;;;18.32;100.00
4836;BME280;2432;51.226;6.904;2022-08-18T03:29:08;100548.94;;;18.35;100.00
4836;BME280;2432;51.226;6.904;2022-08-18T03:31:35;100549.88;;;18.34;100.00
4836;BME280;2432;51.226;6.904;2022-08-18T03:34:04;100552.03;;;18.44;100.00
4836;BME280;2432;51.226;6.904;2022-08-18T03:36:33;100553.56;;;18.48;100.00
4836;BME280;2432;51.226;6.904;2022-08-18T03:39:02;100548.44;;;18.45;100.00
4836;BME280;2432;51.226;6.904;2022-08-18T03:41:30;100540.56;;;18.43;100.00
4836;BME280;2432;51.226;6.904;2022-08-18T03:44:16;100545.47;;;18.51;100.00
4836;BME280;2432;51.226;6.904;2022-08-18T03:46:43;100551.94;;;18.45;100.00
4836;BME280;2432;51.226;6.904;2022-08-18T03:49:11;100552.88;;;18.44;100.00
4836;BME280;2432;51.226;6.904;2022-08-18T03:51:41;100550.91;;;18.48;100.00
4836;BME280;2432;51.226;6.904;2022-08-18T03:54:09;100549.19;;;18.47;100.00
4836;BME280;2432;51.226;6.904;2022-08-18T03:56:37;100551.84;;;18.47;100.00
4836;BME280;2432;51.226;6.904;2022-08-18T03:59:10;100561.06;;;18.40;100.00
4836;BME280;2432;51.226;6.904;2022-08-18T04:01:40;100544.72;;;18.31;100.00
4836;BME280;2432;51.226;6.904;2022-08-18T04:04:13;100555.31;;;18.31;100.00
4836;BME280;2432;51.226;6.904;2022-08-18T04:06:44;100538.31;;;18.35;100.00
4836;BME280;2432;51.226;6.904;2022-08-18T04:09:16;100536.25;;;18.41;100.00
4836;BME280;2432;51.226;6.904;2022-08-18T04:11:43;100538.25;;;18.37;100.00
4836;BME280;2432;51.226;6.904;2022-08-18T04:14:12;100548.56;;;18.42;100.00
4836;BME280;2432;51.226;6.904;2022-08-18T04:16:40;100552.97;;;18.43;100.00
4836;BME280;2432;51.226;6.904;2022-08-18T04:19:07;100551.69;;;18.50;100.00
4836;BME280;2432;51.226;6.904;2022-08-18T04:21:37;100553.22;;;18.54;100.00
4836;BME280;2432;51.226;6.904;2022-08-18T04:24:05;100558.53;;;18.54;100.00
4836;BME280;2432;51.226;6.904;2022-08-18T04:26:34;100552.47;;;18.52;100.00
4836;BME280;2432;51.226;6.904;2022-08-18T04:29:03;100548.97;;;18.51;100.00
4836;BME280;2432;51.226;6.904;2022-08-18T04:31:30;100560.44;;;18.52;100.00
4836;BME280;2432;51.226;6.904;2022-08-18T04:33:59;100555.03;;;18.53;100.00
4836;BME280;2432;51.226;6.904;2022-08-18T04:36:27;100543.31;;;18.57;100.00
4836;BME280;2432;51.226;6.904;2022-08-18T04:38:54;100544.00;;;18.61;100.00
4836;BME280;2432;51.226;6.904;2022-08-18T04:41:22;100545.56;;;18.65;100.00
4836;BME280;2432;51.226;6.904;2022-08-18T04:44:00;100565.63;;;18.71;100.00
4836;BME280;2432;51.226;6.904;2022-08-18T04:46:28;100565.72;;;18.69;100.00
4836;BME280;2432;51.226;6.904;2022-08-18T04:48:57;100564.91;;;18.67;100.00
4836;BME280;2432;51.226;6.904;2022-08-18T04:51:27;100573.47;;;18.72;100.00
4836;BME280;2432;51.226;6.904;2022-08-18T04:54:14;100572.34;;;18.76;100.00
4836;BME280;2432;51.226;6.904;2022-08-18T04:56:41;100574.00;;;18.79;100.00
4836;BME280;2432;51.226;6.904;2022-08-18T04:59:11;100573.66;;;18.85;100.00
4836;BME280;2432;51.226;6.904;2022-08-18T05:01:43;100576.91;;;18.90;100.00
4836;BME280;2432;51.226;6.904;2022-08-18T05:04:15;100575.03;;;18.92;100.00
4836;BME280;2432;51.226;6.904;2022-08-18T05:06:43;100581.81;;;18.98;100.00
4836;BME280;2432;51.226;6.904;2022-08-18T05:09:11;100584.28;;;19.01;100.00
4836;BME280;2432;51.226;6.904;2022-08-18T05:11:42;100575.47;;;19.00;100.00
4836;BME280;2432;51.226;6.904;2022-08-18T05:14:10;100570.91;;;19.02;100.00
4836;BME280;2432;51.226;6.904;2022-08-18T05:16:37;100572.56;;;19.05;100.00
4836;BME280;2432;51.226;6.904;2022-08-18T05:19:16;100575.03;;;19.08;100.00
4836;BME280;2432;51.226;6.904;2022-08-18T05:21:50;100575.78;;;19.10;100.00
4836;BME280;2432;51.226;6.904;2022-08-18T05:24:24;100588.13;;;19.11;100.00
4836;BME280;2432;51.226;6.904;2022-08-18T05:26:55;100593.38;;;19.12;100.00
4836;BME280;2432;51.226;6.904;2022-08-18T05:29:22;100600.22;;;19.16;100.00
4836;BME280;2432;51.226;6.904;2022-08-18T05:31:51;100591.16;;;19.20;100.00
4836;BME280;2432;51.226;6.904;2022-08-18T05:34:20;100579.41;;;19.25;100.00
4836;BME280;2432;51.226;6.904;2022-08-18T05:39:20;100595.22;;;19.26;100.00
4836;BME280;2432;51.226;6.904;2022-08-18T05:44:21;100589.50;;;19.18;100.00
4836;BME280;2432;51.226;6.904;2022-08-18T05:46:54;100593.28;;;19.14;100.00
4836;BME280;2432;51.226;6.904;2022-08-18T05:49:24;100597.88;;;19.10;100.00
4836;BME280;2432;51.226;6.904;2022-08-18T05:51:53;100596.44;;;19.05;100.00
4836;BME280;2432;51.226;6.904;2022-08-18T05:54:23;100607.06;;;19.05;100.00
4836;BME280;2432;51.226;6.904;2022-08-18T05:57:16;100613.81;;;19.10;100.00
4836;BME280;2432;51.226;6.904;2022-08-18T05:59:44;100618.13;;;19.13;100.00
4836;BME280;2432;51.226;6.904;2022-08-18T06:02:29;100610.63;;;19.19;100.00
4836;BME280;2432;51.226;6.904;2022-08-18T06:05:08;100608.50;;;19.26;100.00
4836;BME280;2432;51.226;6.904;2022-08-18T06:07:52;100611.88;;;19.30;100.00
4836;BME280;2432;51.226;6.904;2022-08-18T06:10:20;100613.38;;;19.34;100.00
4836;BME280;2432;51.226;6.904;2022-08-18T06:12:49;100618.69;;;19.34;100.00
4836;BME280;2432;51.226;6.904;2022-08-18T06:21:21;100624.78;;;19.36;100.00
4836;BME280;2432;51.226;6.904;2022-08-18T06:24:01;100627.38;;;19.37;100.00
4836;BME280;2432;51.226;6.904;2022-08-18T06:41:03;100630.69;;;19.41;100.00
4836;BME280;2432;51.226;6.904;2022-08-18T06:43:36;100634.09;;;19.43;100.00
4836;BME280;2432;51.226;6.904;2022-08-18T06:46:18;100642.78;;;19.46;100.00
4836;BME280;2432;51.226;6.904;2022-08-18T06:48:54;100643.53;;;19.48;100.00
4836;BME280;2432;51.226;6.904;2022-08-18T06:51:22;100640.69;;;19.52;100.00
4836;BME280;2432;51.226;6.904;2022-08-18T06:54:02;100648.50;;;19.55;100.00
4836;BME280;2432;51.226;6.904;2022-08-18T06:56:47;100650.22;;;19.56;100.00
4836;BME280;2432;51.226;6.904;2022-08-18T06:59:30;100657.28;;;19.57;100.00
4836;BME280;2432;51.226;6.904;2022-08-18T07:07:45;100657.59;;;19.51;100.00
4836;BME280;2432;51.226;6.904;2022-08-18T07:12:41;100645.44;;;19.46;100.00
4836;BME280;2432;51.226;6.904;2022-08-18T07:15:11;100655.22;;;19.46;100.00
4836;BME280;2432;51.226;6.904;2022-08-18T07:17:38;100646.34;;;19.45;100.00
4836;BME280;2432;51.226;6.904;2022-08-18T07:20:22;100655.13;;;19.47;100.00
4836;BME280;2432;51.226;6.904;2022-08-18T07:22:53;100644.72;;;19.43;100.00
4836;BME280;2432;51.226;6.904;2022-08-18T07:25:26;100654.50;;;19.42;100.00
4836;BME280;2432;51.226;6.904;2022-08-18T07:27:54;100652.59;;;19.44;100.00
4836;BME280;2432;51.226;6.904;2022-08-18T07:33:10;100649.09;;;19.44;100.00
4836;BME280;2432;51.226;6.904;2022-08-18T07:35:46;100645.59;;;19.43;100.00
4836;BME280;2432;51.226;6.904;2022-08-18T07:38:25;100649.94;;;19.44;100.00
4836;BME280;2432;51.226;6.904;2022-08-18T07:44:12;100639.31;;;19.44;100.00
4836;BME280;2432;51.226;6.904;2022-08-18T07:47:03;100637.53;;;19.45;100.00
4836;BME280;2432;51.226;6.904;2022-08-18T07:49:34;100634.88;;;19.45;100.00
4836;BME280;2432;51.226;6.904;2022-08-18T07:52:14;100638.75;;;19.39;100.00
4836;BME280;2432;51.226;6.904;2022-08-18T07:55:10;100637.03;;;19.38;100.00
4836;BME280;2432;51.226;6.904;2022-08-18T07:57:53;100631.22;;;19.32;100.00
4836;BME280;2432;51.226;6.904;2022-08-18T08:00:34;100632.25;;;19.29;100.00
4836;BME280;2432;51.226;6.904;2022-08-18T08:06:28;100646.97;;;19.35;100.00
4836;BME280;2432;51.226;6.904;2022-08-18T08:11:42;100649.19;;;19.42;100.00
4836;BME280;2432;51.226;6.904;2022-08-18T08:14:32;100655.88;;;19.49;100.00
4836;BME280;2432;51.226;6.904;2022-08-18T08:17:24;100660.78;;;19.57;100.00
4836;BME280;2432;51.226;6.904;2022-08-18T08:31:40;100656.59;;;19.99;100.00
4836;BME280;2432;51.226;6.904;2022-08-18T08:36:44;100655.06;;;19.95;100.00
4836;BME280;2432;51.226;6.904;2022-08-18T08:39:24;100663.34;;;20.04;100.00
4836;BME280;2432;51.226;6.904;2022-08-18T08:41:58;100670.22;;;20.09;100.00
4836;BME280;2432;51.226;6.904;2022-08-18T08:44:55;100664.69;;;20.12;100.00
4836;BME280;2432;51.226;6.904;2022-08-18T08:47:30;100673.53;;;20.12;100.00
4836;BME280;2432;51.226;6.904;2022-08-18T08:50:09;100678.50;;;20.18;100.00
4836;BME280;2432;51.226;6.904;2022-08-18T08:55:44;100683.06;;;20.30;100.00
4836;BME280;2432;51.226;6.904;2022-08-18T08:58:21;100680.50;;;20.29;100.00
4836;BME280;2432;51.226;6.904;2022-08-18T09:00:52;100688.47;;;20.29;100.00
4836;BME280;2432;51.226;6.904;2022-08-18T09:03:42;100679.00;;;20.39;100.00
4836;BME280;2432;51.226;6.904;2022-08-18T09:09:21;100673.94;;;20.50;100.00
4836;BME280;2432;51.226;6.904;2022-08-18T09:11:58;100668.22;;;20.56;100.00
4836;BME280;2432;51.226;6.904;2022-08-18T09:14:46;100663.28;;;20.65;100.00
4836;BME280;2432;51.226;6.904;2022-08-18T09:17:27;100656.25;;;20.64;100.00
4836;BME280;2432;51.226;6.904;2022-08-18T09:20:46;100658.28;;;20.60;100.00
4836;BME280;2432;51.226;6.904;2022-08-18T09:23:21;100652.00;;;20.61;100.00
4836;BME280;2432;51.226;6.904;2022-08-18T09:25:55;100656.25;;;20.64;100.00
4836;BME280;2432;51.226;6.904;2022-08-18T09:28:50;100659.78;;;20.64;100.00
4836;BME280;2432;51.226;6.904;2022-08-18T09:31:22;100659.88;;;20.63;100.00
4836;BME280;2432;51.226;6.904;2022-08-18T09:39:27;100657.22;;;20.63;100.00
4836;BME280;2432;51.226;6.904;2022-08-18T09:42:39;100659.56;;;20.67;100.00
4836;BME280;2432;51.226;6.904;2022-08-18T09:50:55;100652.47;;;20.82;100.00
4836;BME280;2432;51.226;6.904;2022-08-18T09:56:15;100665.94;;;20.93;100.00
4836;BME280;2432;51.226;6.904;2022-08-18T09:59:02;100662.63;;;20.89;100.00
4836;BME280;2432;51.226;6.904;2022-08-18T10:01:50;100660.06;;;20.88;100.00
4836;BME280;2432;51.226;6.904;2022-08-18T10:04:34;100658.38;;;20.87;100.00
4836;BME280;2432;51.226;6.904;2022-08-18T10:07:31;100667.97;;;20.89;100.00
4836;BME280;2432;51.226;6.904;2022-08-18T10:10:24;100665.69;;;20.98;100.00
4836;BME280;2432;51.226;6.904;2022-08-18T10:13:20;100667.47;;;21.11;100.00
4836;BME280;2432;51.226;6.904;2022-08-18T10:24:22;100666.38;;;21.42;100.00
4836;BME280;2432;51.226;6.904;2022-08-18T10:27:49;100663.63;;;21.44;100.00
4836;BME280;2432;51.226;6.904;2022-08-18T10:29:56;100665.16;;;21.48;100.00
4836;BME280;2432;51.226;6.904;2022-08-18T10:32:36;100660.34;;;21.53;100.00
4836;BME280;2432;51.226;6.904;2022-08-18T10:35:04;100652.06;;;21.58;100.00
4836;BME280;2432;51.226;6.904;2022-08-18T10:37:41;100661.56;;;21.62;100.00
4836;BME280;2432;51.226;6.904;2022-08-18T10:42:54;100669.47;;;21.63;100.00
4836;BME280;2432;51.226;6.904;2022-08-18T10:45:45;100660.41;;;21.66;100.00
4836;BME280;2432;51.226;6.904;2022-08-18T10:48:32;100658.28;;;21.71;100.00
4836;BME280;2432;51.226;6.904;2022-08-18T10:51:17;100650.63;;;21.66;97.57
4836;BME280;2432;51.226;6.904;2022-08-18T10:54:18;100647.56;;;21.72;98.16
4836;BME280;2432;51.226;6.904;2022-08-18T10:56:54;100647.00;;;21.80;98.68
4836;BME280;2432;51.226;6.904;2022-08-18T10:59:46;100649.09;;;21.89;96.48
4836;BME280;2432;51.226;6.904;2022-08-18T11:04:48;100649.63;;;21.94;97.14
4836;BME280;2432;51.226;6.904;2022-08-18T11:07:27;100638.66;;;21.99;95.32
4836;BME280;2432;51.226;6.904;2022-08-18T11:10:18;100628.41;;;22.06;95.41
4836;BME280;2432;51.226;6.904;2022-08-18T11:21:21;100624.84;;;22.19;94.65
4836;BME280;2432;51.226;6.904;2022-08-18T11:24:42;100627.47;;;22.07;92.34
4836;BME280;2432;51.226;6.904;2022-08-18T11:27:04;100624.81;;;22.07;91.24
4836;BME280;2432;51.226;6.904;2022-08-18T11:29:41;100624.63;;;22.10;93.79
4836;BME280;2432;51.226;6.904;2022-08-18T11:32:31;100622.19;;;22.19;93.88
4836;BME280;2432;51.226;6.904;2022-08-18T11:35:13;100620.16;;;22.36;93.85
4836;BME280;2432;51.226;6.904;2022-08-18T11:37:47;100615.78;;;22.47;92.91
4836;BME280;2432;51.226;6.904;2022-08-18T11:45:53;100585.06;;;22.42;89.02
4836;BME280;2432;51.226;6.904;2022-08-18T11:51:26;100595.72;;;22.42;89.50
4836;BME280;2432;51.226;6.904;2022-08-18T11:54:00;100593.06;;;22.42;90.02
4836;BME280;2432;51.226;6.904;2022-08-18T11:56:32;100601.56;;;22.47;89.86
4836;BME280;2432;51.226;6.904;2022-08-18T11:59:07;100602.97;;;22.52;89.54
4836;BME280;2432;51.226;6.904;2022-08-18T12:01:47;100601.03;;;22.54;88.96
4836;BME280;2432;51.226;6.904;2022-08-18T12:04:36;100601.66;;;22.58;89.03
4836;BME280;2432;51.226;6.904;2022-08-18T12:07:08;100597.81;;;22.49;87.92
4836;BME280;2432;51.226;6.904;2022-08-18T12:09:45;100592.41;;;22.51;86.82
4836;BME280;2432;51.226;6.904;2022-08-18T12:12:32;100593.34;;;22.50;89.30
4836;BME280;2432;51.226;6.904;2022-08-18T12:17:50;100596.66;;;22.53;88.52
4836;BME280;2432;51.226;6.904;2022-08-18T12:20:20;100583.56;;;22.50;88.83
4836;BME280;2432;51.226;6.904;2022-08-18T12:22:48;100594.13;;;22.52;88.41
4836;BME280;2432;51.226;6.904;2022-08-18T12:25:17;100602.31;;;22.49;89.15
4836;BME280;2432;51.226;6.904;2022-08-18T12:27:52;100610.13;;;22.52;90.74
4836;BME280;2432;51.226;6.904;2022-08-18T12:30:18;100617.59;;;22.60;90.15
4836;BME280;2432;51.226;6.904;2022-08-18T12:32:45;100622.47;;;22.66;89.00
4836;BME280;2432;51.226;6.904;2022-08-18T12:35:21;100631.88;;;22.71;90.49
4836;BME280;2432;51.226;6.904;2022-08-18T12:37:48;100639.91;;;22.71;88.01
4836;BME280;2432;51.226;6.904;2022-08-18T12:40:35;100652.28;;;22.72;89.32
4836;BME280;2432;51.226;6.904;2022-08-18T12:43:01;100650.25;;;22.76;88.76
4836;BME280;2432;51.226;6.904;2022-08-18T12:45:31;100661.81;;;22.76;86.52
4836;BME280;2432;51.226;6.904;2022-08-18T12:47:57;100662.75;;;22.75;86.98
4836;BME280;2432;51.226;6.904;2022-08-18T12:50:30;100668.94;;;22.76;88.22
4836;BME280;2432;51.226;6.904;2022-08-18T12:53:03;100657.94;;;22.80;88.33
4836;BME280;2432;51.226;6.904;2022-08-18T12:55:35;100643.22;;;22.88;87.64
4836;BME280;2432;51.226;6.904;2022-08-18T12:58:22;100629.13;;;22.86;85.31
4836;BME280;2432;51.226;6.904;2022-08-18T13:00:48;100627.41;;;22.97;86.84
4836;BME280;2432;51.226;6.904;2022-08-18T13:03:16;100626.13;;;22.90;85.10
4836;BME280;2432;51.226;6.904;2022-08-18T13:05:44;100624.09;;;22.94;87.31
4836;BME280;2432;51.226;6.904;2022-08-18T13:08:17;100620.78;;;22.90;85.97
4836;BME280;2432;51.226;6.904;2022-08-18T13:11:03;100609.59;;;22.85;85.53
4836;BME280;2432;51.226;6.904;2022-08-18T13:13:49;100600.50;;;22.88;88.78
4836;BME280;2432;51.226;6.904;2022-08-18T13:16:22;100600.69;;;22.84;87.73
4836;BME280;2432;51.226;6.904;2022-08-18T13:19:05;100601.56;;;22.72;87.55
4836;BME280;2432;51.226;6.904;2022-08-18T13:21:36;100607.44;;;22.65;87.64
4836;BME280;2432;51.226;6.904;2022-08-18T13:24:07;100610.00;;;22.66;89.62
4836;BME280;2432;51.226;6.904;2022-08-18T13:26:37;100595.47;;;22.70;90.32
4836;BME280;2432;51.226;6.904;2022-08-18T13:29:07;100595.38;;;22.72;88.77
4836;BME280;2432;51.226;6.904;2022-08-18T13:31:36;100589.41;;;22.68;88.22
4836;BME280;2432;51.226;6.904;2022-08-18T13:34:04;100586.72;;;22.68;85.96
4836;BME280;2432;51.226;6.904;2022-08-18T13:36:44;100589.91;;;22.73;89.14
4836;BME280;2432;51.226;6.904;2022-08-18T13:39:17;100594.47;;;22.84;86.44
4836;BME280;2432;51.226;6.904;2022-08-18T13:41:45;100582.94;;;22.96;85.46
4836;BME280;2432;51.226;6.904;2022-08-18T13:44:13;100574.63;;;23.25;85.39
4836;BME280;2432;51.226;6.904;2022-08-18T13:46:45;100588.31;;;23.44;83.27
4836;BME280;2432;51.226;6.904;2022-08-18T13:49:16;100569.50;;;23.46;82.19
4836;BME280;2432;51.226;6.904;2022-08-18T13:51:51;100561.84;;;23.52;81.67
4836;BME280;2432;51.226;6.904;2022-08-18T13:54:29;100556.91;;;23.59;82.65
4836;BME280;2432;51.226;6.904;2022-08-18T13:57:01;100558.97;;;23.55;78.98
4836;BME280;2432;51.226;6.904;2022-08-18T13:59:28;100554.69;;;23.53;78.68
4836;BME280;2432;51.226;6.904;2022-08-18T14:02:02;100562.25;;;23.59;77.64
4836;BME280;2432;51.226;6.904;2022-08-18T14:04:34;100562.84;;;23.75;78.85
4836;BME280;2432;51.226;6.904;2022-08-18T14:07:01;100559.22;;;23.87;79.93
4836;BME280;2432;51.226;6.904;2022-08-18T14:09:34;100559.72;;;23.92;81.51
4836;BME280;2432;51.226;6.904;2022-08-18T14:12:05;100560.44;;;23.83;76.26
4836;BME280;2432;51.226;6.904;2022-08-18T14:14:48;100557.97;;;23.80;76.92
4836;BME280;2432;51.226;6.904;2022-08-18T14:17:18;100570.88;;;23.86;81.32
4836;BME280;2432;51.226;6.904;2022-08-18T14:19:49;100573.56;;;23.86;79.65
4836;BME280;2432;51.226;6.904;2022-08-18T14:22:36;100570.19;;;23.95;82.69
4836;BME280;2432;51.226;6.904;2022-08-18T14:25:21;100574.81;;;23.93;83.27
4836;BME280;2432;51.226;6.904;2022-08-18T14:28:06;100573.81;;;23.94;81.90
4836;BME280;2432;51.226;6.904;2022-08-18T14:30:37;100563.59;;;23.88;75.61
4836;BME280;2432;51.226;6.904;2022-08-18T14:33:06;100566.38;;;23.87;75.73
4836;BME280;2432;51.226;6.904;2022-08-18T14:35:36;100564.34;;;23.90;77.06
4836;BME280;2432;51.226;6.904;2022-08-18T14:38:23;100561.44;;;23.93;77.53
4836;BME280;2432;51.226;6.904;2022-08-18T14:40:50;100560.09;;;23.99;80.39
4836;BME280;2432;51.226;6.904;2022-08-18T14:43:19;100553.16;;;23.96;80.26
4836;BME280;2432;51.226;6.904;2022-08-18T14:45:50;100563.25;;;23.93;79.03
4836;BME280;2432;51.226;6.904;2022-08-18T14:48:23;100559.34;;;23.97;80.96
4836;BME280;2432;51.226;6.904;2022-08-18T14:50:54;100565.22;;;24.02;81.93
4836;BME280;2432;51.226;6.904;2022-08-18T14:53:25;100566.44;;;24.09;76.90
4836;BME280;2432;51.226;6.904;2022-08-18T14:55:52;100566.31;;;24.11;73.36
4836;BME280;2432;51.226;6.904;2022-08-18T14:58:26;100554.53;;;24.13;76.95
4836;BME280;2432;51.226;6.904;2022-08-18T15:00:55;100561.47;;;24.16;73.22
4836;BME280;2432;51.226;6.904;2022-08-18T15:03:23;100563.53;;;24.12;73.30
4836;BME280;2432;51.226;6.904;2022-08-18T15:05:58;100554.91;;;24.09;71.31
4836;BME280;2432;51.226;6.904;2022-08-18T15:08:26;100552.44;;;24.06;72.80
4836;BME280;2432;51.226;6.904;2022-08-18T15:10:54;100543.47;;;24.07;74.02
4836;BME280;2432;51.226;6.904;2022-08-18T15:13:23;100543.94;;;24.12;73.95
4836;BME280;2432;51.226;6.904;2022-08-18T15:15:53;100537.63;;;24.24;76.27
4836;BME280;2432;51.226;6.904;2022-08-18T15:18:28;100535.44;;;24.29;77.49
4836;BME280;2432;51.226;6.904;2022-08-18T15:20:56;100538.97;;;24.30;78.72
4836;BME280;2432;51.226;6.904;2022-08-18T15:24:02;100544.56;;;24.27;76.27
4836;BME280;2432;51.226;6.904;2022-08-18T15:26:50;100542.25;;;24.22;75.70
4836;BME280;2432;51.226;6.904;2022-08-18T15:29:28;100539.94;;;24.17;73.84
4836;BME280;2432;51.226;6.904;2022-08-18T15:31:56;100541.00;;;24.15;72.18
4836;BME280;2432;51.226;6.904;2022-08-18T15:34:28;100550.00;;;24.14;74.15
4836;BME280;2432;51.226;6.904;2022-08-18T15:36:56;100541.00;;;24.15;73.41
4836;BME280;2432;51.226;6.904;2022-08-18T15:39:35;100542.50;;;24.19;68.43
4836;BME280;2432;51.226;6.904;2022-08-18T15:42:08;100547.25;;;24.27;67.68
4836;BME280;2432;51.226;6.904;2022-08-18T15:44:35;100552.72;;;24.25;66.23
4836;BME280;2432;51.226;6.904;2022-08-18T15:47:03;100545.16;;;24.30;65.61